Time;durP1;ratioP1;P1;durP2;ratioP2;P2;SDS_P1;SDS_P2;PMS_P1;PMS_P2;Temp;Humidity;BMP_temperature;BMP_pressure;BME280_temperature;BME280_humidity;BME280_pressure;Samples;Min_cycle;Max_cycle;Signal;HPM_P1;HPM_P2
2023/06/13 00:00:37;;;;;;;;;;;13.30;92.70;;;;;;5023438;28;19921;-81
2023/06/13 00:03:03;;;;;;;;;;;13.30;92.80;;;;;;5034314;28;20395;-81
2023/06/13 00:05:30;;;;;;;;;;;13.30;93.20;;;;;;5029235;28;19963;-81
2023/06/13 00:07:56;;;;;;;;;;;13.40;93.20;;;;;;5035531;28;19936;-81
2023/06/13 00:10:21;;;;;;;;;;;13.40;93.10;;;;;;5000658;28;19914;-80
2023/06/13 00:12:49;;;;;;;;;;;13.40;93.20;;;;;;5015681;28;19945;-81
2023/06/13 00:15:15;;;;;;;;;;;13.30;93.30;;;;;;5020465;28;20011;-81
2023/06/13 00:17:41;;;;;;;;;;;13.20;93.50;;;;;;5022582;28;19909;-81
2023/06/13 00:20:08;;;;;;;;;;;13.20;93.60;;;;;;5015839;28;19917;-81
2023/06/13 00:22:34;;;;;;;;;;;13.20;93.70;;;;;;5024147;28;20352;-81
2023/06/13 00:24:59;;;;;;;;;;;13.20;93.80;;;;;;5015211;28;19917;-81
2023/06/13 00:27:25;;;;;;;;;;;13.10;94.00;;;;;;5015024;28;19909;-81
2023/06/13 00:29:50;;;;;;;;;;;13.10;94.10;;;;;;5030389;28;20011;-81
2023/06/13 00:32:17;;;;;;;;;;;13.00;94.30;;;;;;5016708;28;20358;-81
2023/06/13 00:34:43;;;;;;;;;;;13.00;94.40;;;;;;5017654;28;20012;-81
2023/06/13 00:37:13;;;;;;;;;;;12.90;94.60;;;;;;5023397;28;20000;-81
2023/06/13 00:39:41;;;;;;;;;;;12.90;94.80;;;;;;5022081;28;19940;-81
2023/06/13 00:42:07;;;;;;;;;;;12.90;94.80;;;;;;5031526;28;19928;-79
2023/06/13 00:44:33;;;;;;;;;;;12.80;95.00;;;;;;5025468;28;19921;-80
2023/06/13 00:47:00;;;;;;;;;;;12.70;95.10;;;;;;5020589;28;19932;-81
2023/06/13 00:49:26;;;;;;;;;;;12.70;95.30;;;;;;5014866;28;19916;-81
2023/06/13 00:51:52;;;;;;;;;;;12.70;95.50;;;;;;5022050;28;19909;-81
2023/06/13 00:54:18;;;;;;;;;;;12.70;95.50;;;;;;5034709;28;19970;-81
2023/06/13 00:56:45;;;;;;;;;;;12.70;95.50;;;;;;5034820;28;19912;-81
2023/06/13 00:59:12;;;;;;;;;;;12.60;95.50;;;;;;5034532;28;19905;-81
2023/06/13 01:01:40;;;;;;;;;;;12.60;95.70;;;;;;5034580;28;20003;-81
2023/06/13 01:04:07;;;;;;;;;;;12.50;95.90;;;;;;5034486;28;19936;-81
2023/06/13 01:06:38;;;;;;;;;;;12.40;96.00;;;;;;5036362;28;20291;-81
2023/06/13 01:09:05;;;;;;;;;;;12.40;96.20;;;;;;5030555;28;19916;-81
2023/06/13 01:11:49;;;;;;;;;;;12.40;96.50;;;;;;5016389;28;20337;-81
2023/06/13 01:14:20;;;;;;;;;;;12.30;96.80;;;;;;5024250;28;19916;-81
2023/06/13 01:16:48;;;;;;;;;;;12.30;97.00;;;;;;5036455;28;19981;-81
2023/06/13 01:19:23;;;;;;;;;;;12.30;97.10;;;;;;5036882;28;19905;-81
2023/06/13 01:21:50;;;;;;;;;;;12.20;97.30;;;;;;5031207;28;19905;-81
2023/06/13 01:24:20;;;;;;;;;;;12.20;97.40;;;;;;5016168;28;19971;-81
2023/06/13 01:26:52;;;;;;;;;;;12.10;97.60;;;;;;5016631;28;19906;-81
2023/06/13 01:29:18;;;;;;;;;;;12.10;97.70;;;;;;5024038;28;19905;-81
2023/06/13 01:31:46;;;;;;;;;;;12.00;97.90;;;;;;5020924;28;19974;-81
2023/06/13 01:34:12;;;;;;;;;;;11.90;98.30;;;;;;5045150;28;19915;-81
2023/06/13 01:36:38;;;;;;;;;;;11.80;98.60;;;;;;5060110;28;19909;-81
2023/06/13 01:39:03;;;;;;;;;;;11.80;98.90;;;;;;5041876;28;19931;-81
2023/06/13 01:41:29;;;;;;;;;;;11.70;99.30;;;;;;5023518;28;19975;-80
2023/06/13 01:43:54;;;;;;;;;;;11.60;99.60;;;;;;5024855;28;20001;-80
2023/06/13 01:46:30;;;;;;;;;;;11.70;99.90;;;;;;5020902;28;19971;-81
2023/06/13 01:49:16;;;;;;;;;;;11.60;99.90;;;;;;5019693;28;20024;-81
2023/06/13 01:51:46;;;;;;;;;;;11.60;99.90;;;;;;5033505;28;19909;-80
2023/06/13 01:54:14;;;;;;;;;;;11.60;99.90;;;;;;5024687;28;19916;-81
2023/06/13 01:56:41;;;;;;;;;;;11.60;99.90;;;;;;5020358;28;19910;-81
2023/06/13 01:59:07;;;;;;;;;;;11.50;99.90;;;;;;5018787;28;19945;-81
2023/06/13 02:01:35;;;;;;;;;;;11.50;99.90;;;;;;5021141;28;19917;-82
2023/06/13 02:04:03;;;;;;;;;;;11.50;99.90;;;;;;5018169;28;19915;-81
2023/06/13 02:06:29;;;;;;;;;;;11.50;99.90;;;;;;5019899;28;19913;-81
2023/06/13 02:08:58;;;;;;;;;;;11.40;99.90;;;;;;5018632;28;19909;-81
2023/06/13 02:11:23;;;;;;;;;;;11.40;99.90;;;;;;5025731;28;19928;-81
2023/06/13 02:13:49;;;;;;;;;;;11.40;99.90;;;;;;5026181;28;20357;-81
2023/06/13 02:16:17;;;;;;;;;;;11.40;99.90;;;;;;5026163;28;19935;-81
2023/06/13 02:18:44;;;;;;;;;;;11.40;99.90;;;;;;5027123;28;20015;-81
2023/06/13 02:21:09;;;;;;;;;;;11.40;99.90;;;;;;5020361;28;19913;-81
2023/06/13 02:23:35;;;;;;;;;;;11.30;99.90;;;;;;5019887;28;20293;-81
2023/06/13 02:26:01;;;;;;;;;;;11.30;99.90;;;;;;5027019;28;20279;-81
2023/06/13 02:28:27;;;;;;;;;;;11.20;99.90;;;;;;5038149;28;20290;-81
2023/06/13 02:30:53;;;;;;;;;;;11.20;99.90;;;;;;5012676;28;19925;-81
2023/06/13 02:33:18;;;;;;;;;;;11.00;99.90;;;;;;5019788;28;20332;-81
2023/06/13 02:35:45;;;;;;;;;;;10.90;99.90;;;;;;5019275;28;19905;-81
2023/06/13 02:38:11;;;;;;;;;;;10.80;99.90;;;;;;5018200;28;19906;-81
2023/06/13 02:40:37;;;;;;;;;;;10.70;99.90;;;;;;5033630;28;20061;-82
2023/06/13 02:43:03;;;;;;;;;;;10.70;99.90;;;;;;5039315;28;19916;-81
2023/06/13 02:45:28;;;;;;;;;;;10.70;99.90;;;;;;5046052;28;19912;-81
2023/06/13 02:47:54;;;;;;;;;;;10.70;99.90;;;;;;5034591;28;19913;-81
2023/06/13 02:50:21;;;;;;;;;;;10.70;99.90;;;;;;5021706;28;19996;-82
2023/06/13 02:52:47;;;;;;;;;;;10.70;99.90;;;;;;5046275;28;19938;-81
2023/06/13 02:55:12;;;;;;;;;;;10.70;99.90;;;;;;5037986;28;19966;-81
2023/06/13 02:57:38;;;;;;;;;;;10.60;99.90;;;;;;5038822;28;19909;-81
2023/06/13 03:00:07;;;;;;;;;;;10.60;99.90;;;;;;5037772;28;19963;-81
2023/06/13 03:02:32;;;;;;;;;;;10.50;99.90;;;;;;5037515;28;19940;-81
2023/06/13 03:04:58;;;;;;;;;;;10.30;99.90;;;;;;5037676;28;19909;-81
2023/06/13 03:07:23;;;;;;;;;;;10.30;99.90;;;;;;5023653;28;20365;-80
2023/06/13 03:09:49;;;;;;;;;;;10.30;99.90;;;;;;5023808;28;19913;-81
2023/06/13 03:12:15;;;;;;;;;;;10.30;99.90;;;;;;5023622;28;19992;-81
2023/06/13 03:14:41;;;;;;;;;;;10.20;99.90;;;;;;5024741;28;19909;-81
2023/06/13 03:17:06;;;;;;;;;;;10.20;99.90;;;;;;5031734;28;19905;-81
2023/06/13 03:19:32;;;;;;;;;;;10.10;99.90;;;;;;5024780;28;19977;-81
2023/06/13 03:21:57;;;;;;;;;;;10.10;99.90;;;;;;5025671;28;19961;-81
2023/06/13 03:24:23;;;;;;;;;;;10.10;99.90;;;;;;5024470;28;19909;-81
2023/06/13 03:26:48;;;;;;;;;;;10.10;99.90;;;;;;5037617;28;20008;-82
2023/06/13 03:29:14;;;;;;;;;;;10.10;99.90;;;;;;5035285;28;19956;-81
2023/06/13 03:31:40;;;;;;;;;;;10.10;99.90;;;;;;5006345;28;19913;-81
2023/06/13 03:34:06;;;;;;;;;;;10.10;99.90;;;;;;5035775;28;19915;-81
2023/06/13 03:36:34;;;;;;;;;;;10.10;99.90;;;;;;5022953;28;19910;-81
2023/06/13 03:39:00;;;;;;;;;;;10.10;99.90;;;;;;5023117;28;19980;-81
2023/06/13 03:41:25;;;;;;;;;;;10.10;99.90;;;;;;5029547;28;19925;-81
2023/06/13 03:43:51;;;;;;;;;;;10.10;99.90;;;;;;5021364;28;20491;-78
2023/06/13 03:46:17;;;;;;;;;;;10.10;99.90;;;;;;5023050;28;19964;-77
2023/06/13 03:48:42;;;;;;;;;;;10.10;99.90;;;;;;5022376;28;19918;-77
2023/06/13 03:51:08;;;;;;;;;;;10.10;99.90;;;;;;5033879;28;19919;-77
2023/06/13 03:53:33;;;;;;;;;;;10.10;99.90;;;;;;5031934;28;20349;-78
2023/06/13 03:56:00;;;;;;;;;;;10.10;99.90;;;;;;5034650;28;19924;-77
2023/06/13 03:58:26;;;;;;;;;;;10.10;99.90;;;;;;5027735;28;19932;-77
2023/06/13 04:00:54;;;;;;;;;;;10.00;99.90;;;;;;5019370;28;20377;-77
2023/06/13 04:03:19;;;;;;;;;;;10.10;99.90;;;;;;5022684;28;19913;-77
2023/06/13 04:05:45;;;;;;;;;;;10.10;99.90;;;;;;5023836;28;19919;-77
2023/06/13 04:08:11;;;;;;;;;;;10.10;99.90;;;;;;5014061;28;19921;-77
2023/06/13 04:10:37;;;;;;;;;;;10.00;99.90;;;;;;5023298;28;19955;-78
2023/06/13 04:13:02;;;;;;;;;;;10.10;99.90;;;;;;5022662;28;19921;-78
2023/06/13 04:15:28;;;;;;;;;;;10.10;99.90;;;;;;5023929;28;19924;-78
2023/06/13 04:17:54;;;;;;;;;;;10.10;99.90;;;;;;5023779;28;19909;-78
2023/06/13 04:20:21;;;;;;;;;;;10.10;99.90;;;;;;5014061;28;21707;-78
2023/06/13 04:22:47;;;;;;;;;;;10.10;99.90;;;;;;5030769;28;20012;-78
2023/06/13 04:25:13;;;;;;;;;;;10.10;99.90;;;;;;5029383;28;19991;-78
2023/06/13 04:27:39;;;;;;;;;;;10.10;99.90;;;;;;5028615;28;19921;-78
2023/06/13 04:30:05;;;;;;;;;;;10.20;99.90;;;;;;5023657;28;19916;-77
2023/06/13 04:32:34;;;;;;;;;;;10.20;99.90;;;;;;5021293;28;19913;-78
2023/06/13 04:35:00;;;;;;;;;;;10.20;99.90;;;;;;5023531;28;19927;-77
2023/06/13 04:37:25;;;;;;;;;;;10.20;99.90;;;;;;5022929;28;19909;-78
2023/06/13 04:39:54;;;;;;;;;;;10.30;99.90;;;;;;5030329;28;19917;-77
2023/06/13 04:42:28;;;;;;;;;;;10.30;99.90;;;;;;5030576;28;19909;-78
2023/06/13 04:44:56;;;;;;;;;;;10.30;99.90;;;;;;5018146;28;20365;-77
2023/06/13 04:47:25;;;;;;;;;;;10.30;99.90;;;;;;5034626;28;19905;-77
2023/06/13 04:49:58;;;;;;;;;;;10.30;99.90;;;;;;5024834;28;19913;-78
2023/06/13 04:52:27;;;;;;;;;;;10.30;99.90;;;;;;5013104;28;19964;-77
2023/06/13 04:54:54;;;;;;;;;;;10.30;99.90;;;;;;5015149;28;19910;-77
2023/06/13 04:57:20;;;;;;;;;;;10.40;99.90;;;;;;5021832;28;19945;-77
2023/06/13 04:59:46;;;;;;;;;;;10.40;99.90;;;;;;5020583;28;20354;-77
2023/06/13 05:02:12;;;;;;;;;;;10.50;99.90;;;;;;5030104;28;19962;-77
2023/06/13 05:04:38;;;;;;;;;;;10.50;99.90;;;;;;5017378;28;20008;-77
2023/06/13 05:07:06;;;;;;;;;;;10.50;99.90;;;;;;5035148;28;20312;-77
2023/06/13 05:09:31;;;;;;;;;;;10.50;99.90;;;;;;5020234;28;20285;-78
2023/06/13 05:11:57;;;;;;;;;;;10.50;99.90;;;;;;5017818;28;19909;-78
2023/06/13 05:14:23;;;;;;;;;;;10.50;99.90;;;;;;5028544;28;19955;-78
2023/06/13 05:16:48;;;;;;;;;;;10.50;99.90;;;;;;5040470;28;20407;-78
2023/06/13 05:19:14;;;;;;;;;;;10.50;99.90;;;;;;5039276;28;20361;-78
2023/06/13 05:21:39;;;;;;;;;;;10.50;99.90;;;;;;5040483;28;19924;-78
2023/06/13 05:24:07;;;;;;;;;;;10.50;99.90;;;;;;5040309;28;20323;-78
2023/06/13 05:26:33;;;;;;;;;;;10.60;99.90;;;;;;5039061;28;19913;-78
2023/06/13 05:28:58;;;;;;;;;;;10.60;99.90;;;;;;5038728;28;19909;-78
2023/06/13 05:31:24;;;;;;;;;;;10.60;99.90;;;;;;5038530;28;19909;-77
2023/06/13 05:33:50;;;;;;;;;;;10.70;99.90;;;;;;5038616;28;19909;-78
2023/06/13 05:36:15;;;;;;;;;;;10.70;99.90;;;;;;5038889;28;20265;-78
2023/06/13 05:38:41;;;;;;;;;;;10.70;99.90;;;;;;5040044;28;19905;-78
2023/06/13 05:41:06;;;;;;;;;;;10.70;99.90;;;;;;5038782;28;19916;-78
2023/06/13 05:43:32;;;;;;;;;;;10.80;99.90;;;;;;5038764;28;19927;-78
2023/06/13 05:45:58;;;;;;;;;;;10.90;99.90;;;;;;5038457;28;19913;-77
2023/06/13 05:48:23;;;;;;;;;;;11.00;99.90;;;;;;5038518;28;20015;-78
2023/06/13 05:50:49;;;;;;;;;;;11.10;99.90;;;;;;5037995;28;20369;-78
2023/06/13 05:53:15;;;;;;;;;;;11.20;99.90;;;;;;5025427;28;19909;-78
2023/06/13 05:55:40;;;;;;;;;;;11.30;99.90;;;;;;5030191;28;19910;-78
2023/06/13 05:58:06;;;;;;;;;;;11.40;99.90;;;;;;5027673;28;19917;-77
2023/06/13 06:00:31;;;;;;;;;;;11.50;99.90;;;;;;5029346;28;19909;-77
2023/06/13 06:02:57;;;;;;;;;;;11.50;99.90;;;;;;5019422;28;19937;-78
2023/06/13 06:05:24;;;;;;;;;;;11.70;99.90;;;;;;5019542;28;20330;-78
2023/06/13 06:07:49;;;;;;;;;;;11.80;99.90;;;;;;5019774;28;19909;-77
2023/06/13 06:10:15;;;;;;;;;;;11.90;99.90;;;;;;5019673;28;20362;-77
2023/06/13 06:12:40;;;;;;;;;;;12.00;99.90;;;;;;5020876;28;20409;-78
2023/06/13 06:15:06;;;;;;;;;;;12.10;99.90;;;;;;5034208;28;19905;-78
2023/06/13 06:17:32;;;;;;;;;;;12.20;99.90;;;;;;5039136;28;20000;-78
2023/06/13 06:19:58;;;;;;;;;;;12.30;99.90;;;;;;5038609;28;19909;-78
2023/06/13 06:22:23;;;;;;;;;;;12.40;99.90;;;;;;5038468;28;20332;-77
2023/06/13 06:24:49;;;;;;;;;;;12.50;99.90;;;;;;5039780;28;19914;-78
2023/06/13 06:27:14;;;;;;;;;;;12.60;99.90;;;;;;5039238;28;19955;-77
2023/06/13 06:29:42;;;;;;;;;;;12.70;99.90;;;;;;5037818;28;19909;-77
2023/06/13 06:32:07;;;;;;;;;;;12.80;99.90;;;;;;5037662;28;19974;-77
2023/06/13 06:34:33;;;;;;;;;;;12.90;99.90;;;;;;5038013;28;20004;-77
2023/06/13 06:37:00;;;;;;;;;;;13.00;99.90;;;;;;5038376;28;19908;-78
2023/06/13 06:39:25;;;;;;;;;;;13.00;99.90;;;;;;5037346;28;20276;-78
2023/06/13 06:41:51;;;;;;;;;;;13.10;99.90;;;;;;5038868;28;19911;-78
2023/06/13 06:44:16;;;;;;;;;;;13.20;99.90;;;;;;5038422;28;19916;-77
2023/06/13 06:46:42;;;;;;;;;;;13.30;99.90;;;;;;5038324;28;19944;-78
2023/06/13 06:49:07;;;;;;;;;;;13.40;99.90;;;;;;5037231;28;19917;-78
2023/06/13 06:51:33;;;;;;;;;;;13.50;99.90;;;;;;5038630;28;20371;-77
2023/06/13 06:53:59;;;;;;;;;;;13.60;99.90;;;;;;5038263;28;20368;-78
2023/06/13 06:56:25;;;;;;;;;;;13.70;99.90;;;;;;5037670;28;19968;-78
2023/06/13 06:58:51;;;;;;;;;;;13.80;99.90;;;;;;5038550;28;19974;-78
2023/06/13 07:01:18;;;;;;;;;;;14.00;99.90;;;;;;5038342;28;20440;-77
2023/06/13 07:03:44;;;;;;;;;;;14.10;99.90;;;;;;5038956;28;19913;-78
2023/06/13 07:06:11;;;;;;;;;;;14.20;99.90;;;;;;5037592;28;20365;-78
2023/06/13 07:08:37;;;;;;;;;;;14.40;99.90;;;;;;5038588;28;19905;-78
2023/06/13 07:11:03;;;;;;;;;;;14.60;99.90;;;;;;5038242;28;19999;-78
2023/06/13 07:13:28;;;;;;;;;;;14.70;99.90;;;;;;5038305;28;20379;-78
2023/06/13 07:15:54;;;;;;;;;;;14.80;99.90;;;;;;5036643;28;19928;-77
2023/06/13 07:18:19;;;;;;;;;;;15.00;99.90;;;;;;5038125;28;19975;-78
2023/06/13 07:20:45;;;;;;;;;;;15.10;99.90;;;;;;5037076;28;19909;-77
2023/06/13 07:23:12;;;;;;;;;;;15.20;99.90;;;;;;5038173;28;19905;-77
2023/06/13 07:25:40;;;;;;;;;;;15.30;99.90;;;;;;5037003;28;20376;-77
2023/06/13 07:28:06;;;;;;;;;;;15.40;99.90;;;;;;5035739;28;19909;-78
2023/06/13 07:30:32;;;;;;;;;;;15.50;99.90;;;;;;5037057;28;19909;-78
2023/06/13 07:32:58;;;;;;;;;;;15.70;99.90;;;;;;5037675;28;20042;-78
2023/06/13 07:35:23;;;;;;;;;;;15.90;99.90;;;;;;5037889;28;19920;-78
2023/06/13 07:37:55;;;;;;;;;;;16.00;99.90;;;;;;5038352;28;20377;-78
2023/06/13 07:40:21;;;;;;;;;;;16.10;99.90;;;;;;5038010;28;20278;-78
2023/06/13 07:42:47;;;;;;;;;;;16.20;99.90;;;;;;5037075;28;19959;-78
2023/06/13 07:45:14;;;;;;;;;;;16.40;99.90;;;;;;5037583;28;19923;-77
2023/06/13 07:47:39;;;;;;;;;;;16.50;99.90;;;;;;5036945;28;19906;-78
2023/06/13 07:50:05;;;;;;;;;;;16.70;99.90;;;;;;5036134;28;19912;-78
2023/06/13 07:52:30;;;;;;;;;;;16.80;99.90;;;;;;5037772;28;19967;-78
2023/06/13 07:54:56;;;;;;;;;;;17.00;99.90;;;;;;5036327;28;19905;-77
2023/06/13 07:57:21;;;;;;;;;;;17.10;99.90;;;;;;5038189;28;19916;-78
2023/06/13 07:59:47;;;;;;;;;;;17.20;99.90;;;;;;5036420;28;19909;-78
2023/06/13 08:02:12;;;;;;;;;;;17.40;99.70;;;;;;5037194;28;19927;-77
2023/06/13 08:04:38;;;;;;;;;;;17.50;99.30;;;;;;5038256;28;20007;-78
2023/06/13 08:07:04;;;;;;;;;;;17.70;99.70;;;;;;5036481;28;19913;-78
2023/06/13 08:09:29;;;;;;;;;;;17.90;98.00;;;;;;5036938;28;19913;-78
2023/06/13 08:11:57;;;;;;;;;;;18.10;97.70;;;;;;5037500;28;19905;-78
2023/06/13 08:14:22;;;;;;;;;;;18.30;97.20;;;;;;5037513;28;19905;-77
2023/06/13 08:16:48;;;;;;;;;;;18.50;96.80;;;;;;5037333;28;19916;-78
2023/06/13 08:19:13;;;;;;;;;;;18.60;96.30;;;;;;5037852;28;19909;-78
2023/06/13 08:21:39;;;;;;;;;;;18.70;95.50;;;;;;5038169;28;19917;-79
2023/06/13 08:24:04;;;;;;;;;;;18.80;94.40;;;;;;5038041;28;19909;-78
2023/06/13 08:26:33;;;;;;;;;;;18.90;94.80;;;;;;5040171;28;19909;-79
2023/06/13 08:29:02;;;;;;;;;;;19.10;94.30;;;;;;5038928;28;20288;-78
2023/06/13 08:31:29;;;;;;;;;;;19.20;94.30;;;;;;5040100;28;19905;-78
2023/06/13 08:33:55;;;;;;;;;;;19.40;93.50;;;;;;5039087;28;19909;-78
2023/06/13 08:36:25;;;;;;;;;;;19.50;92.80;;;;;;5040704;28;20332;-78
2023/06/13 08:38:51;;;;;;;;;;;19.70;92.90;;;;;;5039979;28;19909;-78
2023/06/13 08:41:17;;;;;;;;;;;19.80;91.90;;;;;;5040944;28;19917;-79
2023/06/13 08:43:42;;;;;;;;;;;19.90;90.30;;;;;;5038468;28;19909;-79
2023/06/13 08:46:09;;;;;;;;;;;20.10;90.40;;;;;;5039870;28;19920;-78
2023/06/13 08:48:35;;;;;;;;;;;20.20;89.60;;;;;;5038541;28;19909;-79
2023/06/13 08:51:03;;;;;;;;;;;20.30;88.10;;;;;;5039355;28;19939;-78
2023/06/13 08:53:29;;;;;;;;;;;20.40;90.00;;;;;;5038871;28;19931;-78
2023/06/13 08:55:55;;;;;;;;;;;20.60;86.60;;;;;;5037484;28;19905;-79
2023/06/13 08:58:22;;;;;;;;;;;20.70;85.70;;;;;;5039574;28;19909;-79
2023/06/13 09:00:48;;;;;;;;;;;20.80;86.00;;;;;;5021526;28;20003;-78
2023/06/13 09:03:14;;;;;;;;;;;20.90;86.30;;;;;;5038975;28;19967;-78
2023/06/13 09:05:40;;;;;;;;;;;20.90;84.00;;;;;;5039101;28;20011;-79
2023/06/13 09:08:06;;;;;;;;;;;21.00;84.20;;;;;;5037549;28;19909;-78
2023/06/13 09:10:32;;;;;;;;;;;21.10;82.90;;;;;;5037363;28;19909;-78
2023/06/13 09:12:58;;;;;;;;;;;21.10;82.20;;;;;;5036415;28;20343;-78
2023/06/13 09:15:26;;;;;;;;;;;21.10;82.60;;;;;;5037254;28;20301;-78
2023/06/13 09:17:53;;;;;;;;;;;21.10;82.50;;;;;;5037327;28;19905;-78
2023/06/13 09:20:19;;;;;;;;;;;21.30;83.90;;;;;;5037336;28;19976;-78
2023/06/13 09:22:45;;;;;;;;;;;21.40;83.10;;;;;;5036217;28;19952;-77
2023/06/13 09:25:16;;;;;;;;;;;21.50;82.60;;;;;;5034167;28;19909;-77
2023/06/13 09:27:41;;;;;;;;;;;21.60;81.40;;;;;;5036109;28;19951;-77
2023/06/13 09:30:08;;;;;;;;;;;21.60;82.70;;;;;;5035492;28;19947;-77
2023/06/13 09:32:33;;;;;;;;;;;21.70;79.20;;;;;;5035255;28;19913;-77
2023/06/13 09:35:02;;;;;;;;;;;21.90;80.50;;;;;;5017941;28;19917;-77
2023/06/13 09:37:27;;;;;;;;;;;22.00;79.60;;;;;;5033917;28;19912;-77
2023/06/13 09:39:53;;;;;;;;;;;21.90;77.90;;;;;;5034106;28;19913;-77
2023/06/13 09:42:20;;;;;;;;;;;21.90;79.90;;;;;;5033825;28;20262;-77
2023/06/13 09:44:46;;;;;;;;;;;21.80;80.60;;;;;;5035803;28;19917;-77
2023/06/13 09:47:19;;;;;;;;;;;21.90;78.70;;;;;;5035327;28;19909;-77
2023/06/13 09:49:45;;;;;;;;;;;21.90;78.90;;;;;;5035813;28;19905;-77
2023/06/13 09:52:11;;;;;;;;;;;22.00;78.00;;;;;;5037409;28;20392;-77
2023/06/13 09:54:37;;;;;;;;;;;22.00;77.90;;;;;;5037515;28;19916;-77
2023/06/13 09:57:03;;;;;;;;;;;22.00;78.60;;;;;;5038971;28;19920;-77
2023/06/13 09:59:29;;;;;;;;;;;22.00;79.40;;;;;;5037756;28;19905;-77
2023/06/13 10:01:54;;;;;;;;;;;22.00;78.40;;;;;;5037092;28;19909;-77
2023/06/13 10:04:21;;;;;;;;;;;22.00;77.70;;;;;;5037430;28;20373;-77
2023/06/13 10:06:46;;;;;;;;;;;21.90;76.20;;;;;;5038538;28;20292;-77
2023/06/13 10:09:12;;;;;;;;;;;21.90;78.00;;;;;;5038152;28;19951;-77
2023/06/13 10:11:39;;;;;;;;;;;21.90;78.90;;;;;;5037555;28;19909;-77
2023/06/13 10:14:10;;;;;;;;;;;22.00;77.50;;;;;;5037104;28;19905;-77
2023/06/13 10:16:53;;;;;;;;;;;22.00;76.70;;;;;;5038495;28;19940;-77
2023/06/13 10:19:22;;;;;;;;;;;22.10;78.50;;;;;;5038479;28;19913;-77
2023/06/13 10:21:47;;;;;;;;;;;22.10;75.50;;;;;;5017315;28;20423;-77
2023/06/13 10:24:16;;;;;;;;;;;22.10;76.10;;;;;;5017386;28;19914;-77
2023/06/13 10:26:43;;;;;;;;;;;22.00;76.10;;;;;;5017528;28;20334;-77
2023/06/13 10:29:21;;;;;;;;;;;21.90;74.70;;;;;;5018836;28;19906;-77
2023/06/13 10:31:50;;;;;;;;;;;22.00;75.40;;;;;;5018488;28;19913;-77
2023/06/13 10:34:39;;;;;;;;;;;22.10;72.60;;;;;;5017539;28;19956;-77
2023/06/13 10:37:23;;;;;;;;;;;22.20;74.30;;;;;;5019189;28;20357;-77
2023/06/13 10:40:12;;;;;;;;;;;22.40;71.60;;;;;;5018506;28;19909;-77
2023/06/13 10:42:43;;;;;;;;;;;22.40;72.00;;;;;;4999836;28;20312;-78
2023/06/13 10:45:13;;;;;;;;;;;22.40;72.00;;;;;;5031774;28;19936;-78
2023/06/13 10:47:38;;;;;;;;;;;22.50;69.50;;;;;;5038729;28;20350;-77
2023/06/13 10:50:04;;;;;;;;;;;22.50;68.80;;;;;;5039609;28;19909;-78
2023/06/13 10:52:30;;;;;;;;;;;22.40;68.60;;;;;;5039108;28;19909;-77
2023/06/13 10:54:58;;;;;;;;;;;22.40;70.10;;;;;;5038506;28;19999;-77
2023/06/13 10:57:42;;;;;;;;;;;22.50;72.70;;;;;;5038699;28;19909;-77
2023/06/13 11:00:11;;;;;;;;;;;22.80;72.40;;;;;;5038345;28;19905;-77
2023/06/13 11:02:37;;;;;;;;;;;22.90;72.60;;;;;;5037916;28;19968;-77
2023/06/13 11:05:02;;;;;;;;;;;23.10;70.20;;;;;;5035222;28;19913;-77
2023/06/13 11:07:28;;;;;;;;;;;23.10;70.50;;;;;;5036585;28;19909;-78
2023/06/13 11:10:20;;;;;;;;;;;23.30;70.80;;;;;;5036994;28;19913;-78
2023/06/13 11:12:46;;;;;;;;;;;23.40;66.90;;;;;;5034717;28;19952;-77
2023/06/13 11:15:22;;;;;;;;;;;23.40;69.30;;;;;;5035444;28;19916;-78
2023/06/13 11:18:06;;;;;;;;;;;23.50;68.80;;;;;;5036349;28;19948;-78
2023/06/13 11:20:31;;;;;;;;;;;23.50;68.70;;;;;;5037029;28;19937;-78
2023/06/13 11:22:57;;;;;;;;;;;23.50;65.80;;;;;;5037760;28;19916;-78
2023/06/13 11:25:23;;;;;;;;;;;23.50;68.90;;;;;;5039099;28;19920;-78
2023/06/13 11:27:49;;;;;;;;;;;23.60;70.50;;;;;;5036941;28;19916;-78
2023/06/13 11:30:14;;;;;;;;;;;23.60;67.50;;;;;;5038624;28;19916;-78
2023/06/13 11:32:42;;;;;;;;;;;23.50;67.80;;;;;;5038234;28;19909;-78
2023/06/13 11:35:08;;;;;;;;;;;23.50;66.50;;;;;;5037391;28;19932;-78
2023/06/13 11:37:45;;;;;;;;;;;23.50;66.00;;;;;;5038749;28;19914;-78
2023/06/13 11:40:13;;;;;;;;;;;23.70;67.80;;;;;;5038900;28;19912;-78
2023/06/13 11:42:40;;;;;;;;;;;23.60;64.50;;;;;;5038325;28;19911;-78
2023/06/13 11:45:06;;;;;;;;;;;23.50;64.30;;;;;;5038726;28;19920;-78
2023/06/13 11:47:32;;;;;;;;;;;23.40;67.10;;;;;;5038398;28;19909;-78
2023/06/13 11:49:57;;;;;;;;;;;23.50;66.70;;;;;;5038527;28;19909;-78
2023/06/13 11:52:23;;;;;;;;;;;23.60;66.00;;;;;;5038220;28;19944;-78
2023/06/13 11:54:50;;;;;;;;;;;23.60;63.70;;;;;;5043092;28;19992;-78
2023/06/13 11:57:16;;;;;;;;;;;23.40;63.70;;;;;;5056405;28;19909;-78
2023/06/13 11:59:43;;;;;;;;;;;23.40;64.60;;;;;;5057132;28;19911;-78
2023/06/13 12:02:09;;;;;;;;;;;23.40;64.30;;;;;;5058438;28;20046;-78
2023/06/13 12:04:35;;;;;;;;;;;23.50;64.60;;;;;;5057890;28;19909;-78
2023/06/13 12:07:07;;;;;;;;;;;23.60;62.70;;;;;;5056100;28;19951;-78
2023/06/13 12:09:32;;;;;;;;;;;23.60;64.30;;;;;;5057482;28;19908;-78
2023/06/13 12:11:58;;;;;;;;;;;23.70;62.40;;;;;;5058009;28;19968;-78
2023/06/13 12:14:24;;;;;;;;;;;23.80;63.00;;;;;;5048936;28;19909;-79
2023/06/13 12:16:51;;;;;;;;;;;24.00;66.20;;;;;;5038925;28;19995;-78
2023/06/13 12:19:21;;;;;;;;;;;24.10;65.00;;;;;;5030427;28;19913;-79
2023/06/13 12:21:48;;;;;;;;;;;24.10;63.20;;;;;;5027836;28;20452;-77
2023/06/13 12:24:14;;;;;;;;;;;24.10;60.80;;;;;;5022401;28;19992;-78
2023/06/13 12:26:43;;;;;;;;;;;24.00;62.00;;;;;;5019339;28;19953;-78
2023/06/13 12:29:11;;;;;;;;;;;24.00;63.40;;;;;;5015531;28;20320;-78
2023/06/13 12:31:42;;;;;;;;;;;24.00;62.50;;;;;;5016972;28;19905;-78
2023/06/13 12:34:08;;;;;;;;;;;23.90;61.80;;;;;;5015421;28;20340;-78
2023/06/13 12:36:40;;;;;;;;;;;23.90;61.00;;;;;;5016829;28;19917;-78
2023/06/13 12:39:09;;;;;;;;;;;23.80;61.80;;;;;;5018098;28;19906;-78
2023/06/13 12:41:35;;;;;;;;;;;23.80;60.50;;;;;;5017648;28;19905;-78
2023/06/13 12:44:01;;;;;;;;;;;23.90;62.00;;;;;;5021376;28;20027;-78
2023/06/13 12:46:26;;;;;;;;;;;23.90;63.20;;;;;;5037453;28;19992;-78
2023/06/13 12:48:54;;;;;;;;;;;24.00;60.50;;;;;;5037062;28;19912;-78
2023/06/13 12:51:27;;;;;;;;;;;24.10;61.10;;;;;;5040465;28;20411;-78
2023/06/13 12:53:55;;;;;;;;;;;24.00;59.10;;;;;;5056422;28;19904;-78
2023/06/13 12:56:21;;;;;;;;;;;23.90;61.40;;;;;;5056515;28;19959;-78
2023/06/13 12:58:56;;;;;;;;;;;24.00;61.60;;;;;;5056870;28;19999;-78
2023/06/13 13:01:22;;;;;;;;;;;24.00;59.40;;;;;;5057737;28;19927;-78
2023/06/13 13:03:47;;;;;;;;;;;24.10;61.40;;;;;;5038836;28;20353;-78
2023/06/13 13:06:13;;;;;;;;;;;24.10;60.30;;;;;;5057320;28;20376;-78
2023/06/13 13:08:38;;;;;;;;;;;24.00;59.90;;;;;;5057294;28;19909;-78
2023/06/13 13:11:04;;;;;;;;;;;24.00;60.20;;;;;;5056153;28;19904;-78
2023/06/13 13:13:29;;;;;;;;;;;24.20;60.60;;;;;;5038714;28;19909;-78
2023/06/13 13:15:55;;;;;;;;;;;24.40;61.20;;;;;;5038350;28;19984;-78
2023/06/13 13:18:20;;;;;;;;;;;24.30;59.90;;;;;;5037709;28;20024;-78
2023/06/13 13:20:46;;;;;;;;;;;24.40;59.70;;;;;;5038027;28;19909;-78
2023/06/13 13:23:11;;;;;;;;;;;24.50;59.90;;;;;;5040233;28;19906;-78
2023/06/13 13:25:37;;;;;;;;;;;24.50;62.00;;;;;;5027300;28;19960;-78
2023/06/13 13:28:03;;;;;;;;;;;24.50;59.00;;;;;;5028464;28;20382;-78
2023/06/13 13:30:28;;;;;;;;;;;24.30;59.60;;;;;;5031939;28;19906;-78
2023/06/13 13:32:54;;;;;;;;;;;24.30;59.20;;;;;;5022199;28;19909;-78
2023/06/13 13:35:20;;;;;;;;;;;24.50;61.20;;;;;;5020778;28;19913;-78
2023/06/13 13:37:46;;;;;;;;;;;24.70;60.30;;;;;;5021752;28;19910;-78
2023/06/13 13:40:12;;;;;;;;;;;24.70;59.20;;;;;;5020809;28;19928;-78
2023/06/13 13:42:38;;;;;;;;;;;24.90;59.70;;;;;;5021713;28;20377;-78
2023/06/13 13:45:04;;;;;;;;;;;24.60;58.30;;;;;;5033931;28;19917;-77
2023/06/13 13:47:30;;;;;;;;;;;24.30;59.00;;;;;;5039857;28;19974;-78
2023/06/13 13:49:57;;;;;;;;;;;24.20;60.40;;;;;;5029457;28;19960;-78
2023/06/13 13:52:26;;;;;;;;;;;24.30;60.40;;;;;;5022773;28;19913;-78
2023/06/13 13:54:51;;;;;;;;;;;24.30;59.60;;;;;;5044774;28;19909;-78
2023/06/13 13:57:18;;;;;;;;;;;24.40;59.70;;;;;;5021276;28;19906;-78
2023/06/13 13:59:46;;;;;;;;;;;24.50;59.50;;;;;;5020915;28;19914;-78
2023/06/13 14:02:12;;;;;;;;;;;24.60;58.50;;;;;;5020275;28;19909;-78
2023/06/13 14:04:37;;;;;;;;;;;24.60;58.40;;;;;;5020182;28;19933;-78
2023/06/13 14:07:03;;;;;;;;;;;24.60;58.60;;;;;;5033514;28;19923;-78
2023/06/13 14:09:28;;;;;;;;;;;24.60;58.90;;;;;;5028531;28;19913;-78
2023/06/13 14:11:54;;;;;;;;;;;24.50;57.30;;;;;;5031488;28;19916;-78
2023/06/13 14:14:20;;;;;;;;;;;24.30;57.50;;;;;;5035235;28;19917;-77